Time;durP1;ratioP1;P1;durP2;ratioP2;P2;SDS_P1;SDS_P2;PMS_P1;PMS_P2;Temp;Humidity;BMP_temperature;BMP_pressure;BME280_temperature;BME280_humidity;BME280_pressure;Samples;Min_cycle;Max_cycle;Signal;HPM_P1;HPM_P2
2022/04/03 00:00:57;;;;;;;7.75;7.35;;;;;;;4.99;100.00;99396.94;5025457;28;20210;-63
2022/04/03 00:03:23;;;;;;;7.68;7.28;;;;;;;5.09;100.00;99407.28;5045078;28;20028;-62
2022/04/03 00:05:49;;;;;;;7.80;7.40;;;;;;;4.98;100.00;99408.44;5048091;28;20578;-63
2022/04/03 00:08:14;;;;;;;7.72;7.32;;;;;;;5.01;100.00;99402.88;5037729;28;20366;-63
2022/04/03 00:10:41;;;;;;;7.50;7.10;;;;;;;4.90;100.00;99400.56;5037638;28;20025;-63
2022/04/03 00:13:07;;;;;;;7.20;6.90;;;;;;;4.85;100.00;99413.41;5045957;28;20029;-62
2022/04/03 00:15:36;;;;;;;8.13;7.72;;;;;;;4.84;100.00;99411.72;5041680;28;20098;-63
2022/04/03 00:18:01;;;;;;;8.27;7.85;;;;;;;4.79;100.00;99409.63;5046969;28;20032;-63
2022/04/03 00:20:26;;;;;;;7.68;7.28;;;;;;;4.65;100.00;99402.38;5051174;28;20507;-63
2022/04/03 00:22:52;;;;;;;8.07;7.68;;;;;;;4.73;100.00;99399.75;5039593;28;20089;-63
2022/04/03 00:25:18;;;;;;;8.02;7.63;;;;;;;4.49;100.00;99389.25;5047911;28;20499;-63
2022/04/03 00:27:45;;;;;;;7.28;6.97;;;;;;;4.41;100.00;99388.28;5040623;28;20048;-63
2022/04/03 00:30:11;;;;;;;7.72;7.32;;;;;;;4.55;100.00;99386.78;5041998;28;20038;-63
2022/04/03 00:32:36;;;;;;;7.60;7.20;;;;;;;4.56;100.00;99390.25;5048857;28;20368;-62
2022/04/03 00:35:04;;;;;;;7.20;6.90;;;;;;;4.44;100.00;99376.59;5052257;28;20021;-63
2022/04/03 00:37:29;;;;;;;7.93;7.53;;;;;;;4.47;100.00;99380.69;5041806;28;20040;-63
2022/04/03 00:39:55;;;;;;;8.43;7.93;;;;;;;4.42;100.00;99379.41;5047916;28;20017;-63
2022/04/03 00:42:20;;;;;;;7.50;7.15;;;;;;;4.51;100.00;99377.59;5049680;28;20036;-63
2022/04/03 00:44:46;;;;;;;7.53;7.18;;;;;;;4.34;100.00;99378.59;5043139;28;20048;-63
2022/04/03 00:47:12;;;;;;;7.60;7.20;;;;;;;4.19;100.00;99374.94;5048727;28;20540;-62
2022/04/03 00:49:38;;;;;;;7.15;6.85;;;;;;;4.13;100.00;99371.16;5044205;28;20032;-64
2022/04/03 00:52:04;;;;;;;7.38;7.07;;;;;;;4.19;100.00;99380.19;5043774;28;20025;-63
2022/04/03 00:54:30;;;;;;;7.88;7.47;;;;;;;3.96;100.00;99364.22;5040769;28;20036;-63
2022/04/03 00:56:56;;;;;;;8.23;7.82;;;;;;;4.05;100.00;99373.78;5047902;28;20098;-62
2022/04/03 00:59:22;;;;;;;8.00;7.60;;;;;;;3.88;100.00;99370.28;5051713;28;20032;-62
2022/04/03 01:01:47;;;;;;;9.05;8.52;;;;;;;3.91;100.00;99372.59;5044986;28;20108;-62
2022/04/03 01:04:13;;;;;;;7.93;7.53;;;;;;;3.97;100.00;99377.22;5033616;28;20104;-63
2022/04/03 01:06:39;;;;;;;7.30;7.00;;;;;;;3.94;100.00;99374.06;5051475;28;20551;-63
2022/04/03 01:09:05;;;;;;;7.63;7.25;;;;;;;3.81;100.00;99380.59;5039156;28;20087;-62
2022/04/03 01:11:31;;;;;;;8.05;7.65;;;;;;;3.86;100.00;99378.31;5047589;28;20048;-62
2022/04/03 01:13:57;;;;;;;8.07;7.68;;;;;;;3.95;100.00;99379.16;5051397;28;20033;-63
2022/04/03 01:16:23;;;;;;;7.22;6.93;;;;;;;3.98;100.00;99380.66;5048114;28;20094;-62
2022/04/03 01:18:49;;;;;;;7.20;6.90;;;;;;;3.94;100.00;99381.94;5041697;28;20299;-61
2022/04/03 01:21:16;;;;;;;7.90;7.50;;;;;;;3.74;100.00;99381.38;5050972;28;20039;-62
2022/04/03 01:23:43;;;;;;;7.57;7.18;;;;;;;3.76;100.00;99388.13;5036490;28;20100;-62
2022/04/03 01:26:09;;;;;;;7.45;7.10;;;;;;;3.68;100.00;99393.34;5040235;28;20013;-62
2022/04/03 01:28:35;;;;;;;7.10;6.80;;;;;;;3.66;100.00;99391.84;5053040;28;20116;-63
2022/04/03 01:31:00;;;;;;;7.38;7.05;;;;;;;3.60;100.00;99399.38;5046979;28;20472;-63
2022/04/03 01:33:26;;;;;;;7.93;7.53;;;;;;;3.72;100.00;99393.84;5042903;28;20481;-63
2022/04/03 01:35:51;;;;;;;7.85;7.45;;;;;;;3.62;100.00;99390.53;5033658;28;20071;-63
2022/04/03 01:38:17;;;;;;;7.30;7.00;;;;;;;3.54;100.00;99389.53;5030222;28;20409;-62
2022/04/03 01:40:42;;;;;;;8.00;7.60;;;;;;;3.52;100.00;99391.47;5038165;28;20041;-62
2022/04/03 01:43:10;;;;;;;7.45;7.15;;;;;;;3.58;100.00;99385.59;5013688;28;20072;-62
2022/04/03 01:45:39;;;;;;;7.78;7.38;;;;;;;3.44;100.00;99394.03;5019966;28;20139;-62
2022/04/03 01:48:06;;;;;;;7.65;7.25;;;;;;;3.44;100.00;99391.41;5035434;28;20037;-62
2022/04/03 01:50:32;;;;;;;7.95;7.55;;;;;;;3.54;100.00;99397.38;5044389;28;20052;-62
2022/04/03 01:52:58;;;;;;;7.25;6.95;;;;;;;3.48;100.00;99392.75;5037488;28;20025;-62
2022/04/03 01:55:24;;;;;;;7.60;7.20;;;;;;;3.53;100.00;99380.00;5045422;28;20115;-63
2022/04/03 01:57:50;;;;;;;7.95;7.55;;;;;;;3.51;100.00;99381.13;5013233;28;20674;-62
2022/04/03 02:00:16;;;;;;;7.95;7.55;;;;;;;3.54;100.00;99380.84;5021505;28;20081;-63
2022/04/03 02:02:42;;;;;;;7.28;6.97;;;;;;;3.43;100.00;99368.81;5050720;28;20036;-63
2022/04/03 02:05:08;;;;;;;7.88;7.47;;;;;;;3.44;100.00;99378.31;5032783;28;20026;-63
2022/04/03 02:07:34;;;;;;;7.95;7.55;;;;;;;3.42;100.00;99367.16;5037976;28;20038;-63
2022/04/03 02:10:00;;;;;;;7.68;7.28;;;;;;;3.35;100.00;99374.03;5036566;28;21886;-63
2022/04/03 02:12:26;;;;;;;7.40;7.10;;;;;;;3.35;100.00;99387.13;5050301;28;20469;-63
2022/04/03 02:14:52;;;;;;;8.02;7.63;;;;;;;3.27;100.00;99389.72;5040375;28;20029;-63
2022/04/03 02:17:17;;;;;;;8.07;7.68;;;;;;;3.09;100.00;99387.16;5046081;28;20032;-63
2022/04/03 02:19:43;;;;;;;7.97;7.57;;;;;;;3.23;100.00;99390.97;5043450;28;20024;-62
2022/04/03 02:22:08;;;;;;;8.30;7.88;;;;;;;3.22;100.00;99390.16;5045087;28;20146;-64
2022/04/03 02:24:35;;;;;;;7.50;7.15;;;;;;;3.21;100.00;99398.19;5029148;28;20496;-63
2022/04/03 02:27:01;;;;;;;7.70;7.30;;;;;;;3.19;100.00;99400.16;5047323;28;20028;-63
2022/04/03 02:29:26;;;;;;;7.30;7.00;;;;;;;3.29;100.00;99403.47;5038509;28;20039;-62
2022/04/03 02:31:52;;;;;;;7.85;7.45;;;;;;;3.08;100.00;99395.16;5047592;28;20024;-62
2022/04/03 02:34:17;;;;;;;7.32;7.03;;;;;;;3.20;100.00;99401.78;5040939;28;20370;-63
2022/04/03 02:36:43;;;;;;;7.78;7.38;;;;;;;3.19;100.00;99402.78;5048703;28;20112;-64
2022/04/03 02:39:10;;;;;;;8.43;8.00;;;;;;;3.18;100.00;99401.94;5028070;28;20074;-62
2022/04/03 02:41:35;;;;;;;7.53;7.18;;;;;;;3.21;100.00;99395.56;5039360;28;20442;-62
2022/04/03 02:44:03;;;;;;;7.75;7.35;;;;;;;3.28;100.00;99401.81;5030193;28;20022;-63
2022/04/03 02:46:29;;;;;;;7.50;7.18;;;;;;;3.18;100.00;99396.69;5040692;28;20420;-63
2022/04/03 02:48:55;;;;;;;7.65;7.25;;;;;;;3.26;100.00;99398.56;5040473;28;20083;-63
2022/04/03 02:51:20;;;;;;;7.80;7.40;;;;;;;3.10;100.00;99403.69;5035458;28;20103;-63
2022/04/03 02:53:46;;;;;;;7.60;7.20;;;;;;;3.04;100.00;99392.03;5034924;28;20026;-63
2022/04/03 02:56:11;;;;;;;7.55;7.15;;;;;;;3.23;100.00;99415.41;5020751;28;20049;-63
2022/04/03 02:58:37;;;;;;;7.50;7.10;;;;;;;3.21;100.00;99413.91;5030296;28;20033;-63
2022/04/03 03:01:03;;;;;;;7.70;7.30;;;;;;;3.22;100.00;99415.53;5029264;28;20123;-63
2022/04/03 03:03:28;;;;;;;7.70;7.30;;;;;;;3.18;100.00;99396.69;5028672;28;20021;-63
2022/04/03 03:05:54;;;;;;;8.07;7.68;;;;;;;3.32;100.00;99398.75;5030681;28;20146;-63
2022/04/03 03:08:19;;;;;;;7.60;7.25;;;;;;;3.32;100.00;99387.44;5031814;28;20030;-63
2022/04/03 03:10:46;;;;;;;7.18;6.88;;;;;;;3.35;100.00;99397.59;5036876;28;20022;-62
2022/04/03 03:13:12;;;;;;;7.82;7.43;;;;;;;3.21;100.00;99396.38;5027017;28;20044;-62
2022/04/03 03:15:38;;;;;;;7.20;6.90;;;;;;;3.11;100.00;99400.09;5045346;28;20032;-63
2022/04/03 03:18:03;;;;;;;7.53;7.15;;;;;;;3.27;100.00;99401.00;5038411;28;20054;-63
2022/04/03 03:20:29;;;;;;;7.95;7.55;;;;;;;3.33;100.00;99397.78;5043800;28;20494;-63
2022/04/03 03:22:55;;;;;;;7.57;7.18;;;;;;;3.18;100.00;99407.19;5043231;28;20039;-62
2022/04/03 03:25:20;;;;;;;8.52;8.05;;;;;;;3.22;100.00;99412.94;5043585;28;20095;-63
2022/04/03 03:27:45;;;;;;;7.20;6.90;;;;;;;3.24;100.00;99409.19;5031765;28;20022;-63
2022/04/03 03:30:11;;;;;;;7.93;7.53;;;;;;;3.19;100.00;99397.53;5031370;28;20037;-63
2022/04/03 03:32:37;;;;;;;8.02;7.63;;;;;;;3.20;100.00;99404.41;5029969;28;20029;-63
2022/04/03 03:35:04;;;;;;;7.68;7.28;;;;;;;3.29;100.00;99408.72;5051373;28;20033;-64
2022/04/03 03:37:30;;;;;;;7.50;7.10;;;;;;;3.37;100.00;99410.56;5021559;28;20026;-62
2022/04/03 03:39:55;;;;;;;7.55;7.15;;;;;;;3.42;100.00;99414.34;5019095;28;20051;-62
2022/04/03 03:42:22;;;;;;;7.78;7.38;;;;;;;3.37;100.00;99411.38;5040105;28;20032;-63
2022/04/03 03:44:48;;;;;;;7.25;6.95;;;;;;;3.39;100.00;99409.44;5025823;28;20453;-63
2022/04/03 03:47:13;;;;;;;7.70;7.30;;;;;;;3.37;100.00;99405.31;5027558;28;20057;-64
2022/04/03 03:49:39;;;;;;;8.18;7.78;;;;;;;3.32;100.00;99411.84;5036407;28;20045;-63
2022/04/03 03:52:05;;;;;;;7.70;7.30;;;;;;;3.25;100.00;99408.22;5046389;28;20032;-62
2022/04/03 03:54:31;;;;;;;7.97;7.57;;;;;;;3.27;100.00;99405.44;5042516;28;20040;-62
2022/04/03 03:56:58;;;;;;;8.38;7.95;;;;;;;3.20;100.00;99404.41;5037832;28;20040;-62
2022/04/03 03:59:24;;;;;;;8.85;8.35;;;;;;;3.26;100.00;99409.03;5032535;28;20090;-62
2022/04/03 04:01:49;;;;;;;8.35;7.93;;;;;;;3.36;100.00;99404.50;5042010;28;20446;-62
2022/04/03 04:04:15;;;;;;;7.88;7.47;;;;;;;3.26;100.00;99407.22;5039505;28;20396;-64
2022/04/03 04:06:41;;;;;;;7.65;7.25;;;;;;;3.26;100.00;99407.22;5050759;28;20104;-63
2022/04/03 04:09:06;;;;;;;8.65;8.15;;;;;;;3.18;100.00;99419.47;5048536;28;20155;-63
2022/04/03 04:11:32;;;;;;;7.82;7.43;;;;;;;3.14;100.00;99423.34;5050451;28;20052;-63
2022/04/03 04:13:58;;;;;;;7.80;7.40;;;;;;;3.10;100.00;99419.41;5046332;28;20029;-62
2022/04/03 04:16:24;;;;;;;9.35;8.75;;;;;;;3.17;100.00;99423.91;5042286;28;20032;-62
2022/04/03 04:18:50;;;;;;;8.02;7.63;;;;;;;2.98;100.00;99422.28;5047527;28;20400;-62
2022/04/03 04:21:17;;;;;;;7.53;7.20;;;;;;;3.11;100.00;99427.13;5054940;28;20020;-63
2022/04/03 04:23:43;;;;;;;7.70;7.30;;;;;;;3.21;100.00;99425.22;5051975;28;20489;-63
2022/04/03 04:26:08;;;;;;;7.57;7.25;;;;;;;3.24;100.00;99426.72;5041288;28;20033;-63
2022/04/03 04:28:34;;;;;;;7.20;6.90;;;;;;;3.20;100.00;99430.63;5039691;28;20495;-63
2022/04/03 04:31:00;;;;;;;7.30;7.00;;;;;;;3.16;100.00;99426.66;5038030;28;20108;-63
2022/04/03 04:33:25;;;;;;;7.78;7.38;;;;;;;3.24;100.00;99435.41;5051211;28;20440;-62
2022/04/03 04:35:52;;;;;;;7.30;7.00;;;;;;;3.33;100.00;99442.31;5042191;28;20112;-62
2022/04/03 04:38:17;;;;;;;7.60;7.20;;;;;;;3.20;100.00;99430.63;5050957;28;20029;-63
2022/04/03 04:40:44;;;;;;;7.63;7.30;;;;;;;3.10;100.00;99425.47;5054456;28;20420;-62
2022/04/03 04:43:10;;;;;;;8.77;8.27;;;;;;;3.18;100.00;99430.78;5042574;28;20433;-62
2022/04/03 04:45:36;;;;;;;7.85;7.45;;;;;;;3.26;100.00;99428.19;5033718;28;20099;-61
2022/04/03 04:48:02;;;;;;;7.38;7.03;;;;;;;3.16;100.00;99431.88;5036239;28;20426;-62
2022/04/03 04:50:29;;;;;;;7.60;7.20;;;;;;;3.23;100.00;99441.63;5034791;28;20154;-62
2022/04/03 04:52:58;;;;;;;7.50;7.10;;;;;;;3.10;100.00;99453.47;5033697;28;20081;-62
2022/04/03 04:55:25;;;;;;;7.78;7.38;;;;;;;3.04;100.00;99458.34;5033219;28;20061;-61
2022/04/03 04:57:53;;;;;;;7.55;7.15;;;;;;;3.02;100.00;99464.72;5033013;28;20051;-62
2022/04/03 05:00:20;;;;;;;8.57;8.07;;;;;;;2.95;100.00;99463.69;5041378;28;20703;-62
2022/04/03 05:02:46;;;;;;;8.70;8.20;;;;;;;2.95;100.00;99477.59;5047507;28;20065;-63
2022/04/03 05:05:14;;;;;;;7.82;7.43;;;;;;;3.07;100.00;99479.97;5034105;28;20441;-62
2022/04/03 05:07:40;;;;;;;7.90;7.50;;;;;;;3.02;100.00;99489.13;5035154;28;20037;-61
2022/04/03 05:10:07;;;;;;;8.50;8.00;;;;;;;2.96;100.00;99474.00;5045170;28;20492;-63
2022/04/03 05:12:34;;;;;;;7.88;7.47;;;;;;;3.11;100.00;99494.44;5042303;28;20404;-63
2022/04/03 05:15:00;;;;;;;7.30;7.00;;;;;;;3.06;100.00;99489.63;5042979;28;20037;-62
2022/04/03 05:17:26;;;;;;;7.93;7.53;;;;;;;3.14;100.00;99499.34;5051065;28;20083;-63
2022/04/03 05:19:54;;;;;;;7.28;6.97;;;;;;;3.12;100.00;99502.13;5030412;28;20028;-63
2022/04/03 05:22:23;;;;;;;7.50;7.10;;;;;;;3.04;100.00;99508.13;5050627;28;20492;-63
2022/04/03 05:24:55;;;;;;;8.15;7.75;;;;;;;3.45;100.00;99503.19;5028246;28;20108;-62
2022/04/03 05:27:21;;;;;;;8.40;7.90;;;;;;;3.17;100.00;99496.44;5031496;28;20029;-63
2022/04/03 05:29:47;;;;;;;8.25;7.85;;;;;;;3.21;100.00;99500.38;5027661;28;20075;-63
2022/04/03 05:32:12;;;;;;;9.48;8.88;;;;;;;3.52;100.00;99498.13;5033028;28;20033;-62
2022/04/03 05:34:39;;;;;;;7.10;6.80;;;;;;;3.27;100.00;99500.59;5036430;28;20025;-62
2022/04/03 05:37:05;;;;;;;7.60;7.20;;;;;;;3.50;100.00;99507.97;5043455;28;20079;-63
2022/04/03 05:39:31;;;;;;;8.02;7.63;;;;;;;3.27;100.00;99505.84;5024123;28;20021;-63
2022/04/03 05:41:56;;;;;;;7.90;7.50;;;;;;;3.18;100.00;99506.78;5043117;28;20509;-64
2022/04/03 05:44:23;;;;;;;8.45;8.00;;;;;;;3.18;100.00;99498.09;5040612;28;20029;-62
2022/04/03 05:46:49;;;;;;;8.27;7.82;;;;;;;3.08;100.00;99486.84;5030831;28;20377;-63
2022/04/03 05:49:15;;;;;;;7.70;7.30;;;;;;;3.28;100.00;99506.66;5042813;28;20028;-63
2022/04/03 05:51:42;;;;;;;7.70;7.30;;;;;;;3.23;100.00;99499.28;5045071;28;20039;-64
2022/04/03 05:54:08;;;;;;;7.97;7.57;;;;;;;3.17;100.00;99505.13;5037771;28;20053;-64
2022/04/03 05:56:34;;;;;;;7.93;7.53;;;;;;;3.37;100.00;99510.97;5036938;28;20486;-64
2022/04/03 05:59:00;;;;;;;8.30;7.90;;;;;;;3.10;100.00;99508.50;5040972;28;20036;-63
2022/04/03 06:01:26;;;;;;;8.05;7.65;;;;;;;3.30;100.00;99508.16;5032831;28;20099;-63
2022/04/03 06:03:51;;;;;;;8.07;7.68;;;;;;;3.38;100.00;99507.41;5038756;28;20033;-64
2022/04/03 06:06:17;;;;;;;7.80;7.40;;;;;;;3.33;100.00;99502.63;5038408;28;20033;-63
2022/04/03 06:08:43;;;;;;;7.47;7.07;;;;;;;3.27;100.00;99502.41;5037843;28;20539;-64
2022/04/03 06:11:09;;;;;;;7.38;7.05;;;;;;;3.39;100.00;99503.81;5041112;28;20112;-62
2022/04/03 06:13:35;;;;;;;8.70;8.20;;;;;;;3.46;100.00;99494.34;5035026;28;20044;-62
2022/04/03 06:16:02;;;;;;;8.52;8.02;;;;;;;3.30;100.00;99481.13;5031158;28;20447;-64
2022/04/03 06:18:28;;;;;;;8.50;8.00;;;;;;;3.41;100.00;99491.38;5035926;28;20086;-61
2022/04/03 06:20:55;;;;;;;8.63;8.13;;;;;;;3.42;100.00;99495.63;5046046;28;20385;-63
2022/04/03 06:23:22;;;;;;;7.85;7.45;;;;;;;3.46;100.00;99504.03;5036686;28;20063;-63
2022/04/03 06:25:52;;;;;;;8.40;7.90;;;;;;;3.51;100.00;99506.97;5031389;28;20052;-63
2022/04/03 06:28:19;;;;;;;8.32;7.90;;;;;;;3.40;100.00;99505.44;5031013;28;20029;-62
2022/04/03 06:30:44;;;;;;;8.07;7.68;;;;;;;3.40;100.00;99518.56;5028993;28;20021;-63
2022/04/03 06:33:10;;;;;;;8.10;7.70;;;;;;;3.26;100.00;99524.34;5045065;28;20090;-63
2022/04/03 06:35:36;;;;;;;8.57;8.07;;;;;;;3.41;100.00;99529.88;5039285;28;20074;-64
2022/04/03 06:38:02;;;;;;;8.82;8.32;;;;;;;3.50;100.00;99527.13;5029094;28;20137;-63
2022/04/03 06:40:28;;;;;;;8.15;7.75;;;;;;;3.51;100.00;99534.03;5044076;28;20481;-63
2022/04/03 06:42:54;;;;;;;8.70;8.20;;;;;;;3.65;100.00;99537.06;5031067;28;20554;-62
2022/04/03 06:45:21;;;;;;;8.55;8.05;;;;;;;3.59;100.00;99528.81;5030924;28;20035;-64
2022/04/03 06:47:46;;;;;;;8.20;7.80;;;;;;;3.56;100.00;99536.19;5027448;28;20422;-62
2022/04/03 06:50:12;;;;;;;8.13;7.72;;;;;;;3.45;100.00;99529.41;5030665;28;20036;-64
2022/04/03 06:52:38;;;;;;;9.43;8.82;;;;;;;3.35;100.00;99527.84;5041305;28;20024;-63
2022/04/03 06:55:05;;;;;;;8.10;7.70;;;;;;;3.58;100.00;99529.00;5044087;28;20392;-63
2022/04/03 06:57:30;;;;;;;8.38;7.95;;;;;;;3.62;100.00;99516.41;5040384;28;20064;-64
2022/04/03 06:59:56;;;;;;;7.20;6.90;;;;;;;3.73;100.00;99531.88;5037862;28;20025;-64
2022/04/03 07:02:22;;;;;;;7.80;7.40;;;;;;;3.66;100.00;99533.47;5035157;28;20032;-64
2022/04/03 07:04:47;;;;;;;7.35;7.05;;;;;;;3.81;100.00;99534.53;5033700;28;20017;-62
2022/04/03 07:07:24;;;;;;;7.68;7.28;;;;;;;3.78;100.00;99535.69;5035597;28;20124;-63
2022/04/03 07:09:50;;;;;;;8.55;8.05;;;;;;;3.87;100.00;99539.97;5038459;28;20025;-63
2022/04/03 07:12:15;;;;;;;7.85;7.45;;;;;;;3.83;100.00;99540.47;5043819;28;20033;-63
2022/04/03 07:14:41;;;;;;;8.55;8.05;;;;;;;3.90;100.00;99541.50;5043089;28;20498;-61
2022/04/03 07:17:07;;;;;;;7.32;7.00;;;;;;;3.83;100.00;99549.16;5035535;28;20021;-64
2022/04/03 07:19:33;;;;;;;7.75;7.35;;;;;;;3.86;100.00;99545.41;5033499;28;20028;-64
2022/04/03 07:21:59;;;;;;;8.05;7.65;;;;;;;3.94;100.00;99549.84;5041852;28;20049;-64
2022/04/03 07:24:25;;;;;;;7.53;7.13;;;;;;;4.06;100.00;99549.44;5043671;28;20111;-63
2022/04/03 07:26:51;;;;;;;7.88;7.47;;;;;;;4.09;100.00;99559.63;5031266;28;20056;-63
2022/04/03 07:29:17;;;;;;;7.70;7.30;;;;;;;4.19;100.00;99556.88;5035371;28;20037;-70
2022/04/03 07:31:42;;;;;;;9.02;8.52;;;;;;;4.13;100.00;99562.75;5025586;28;20382;-62
2022/04/03 07:34:08;;;;;;;7.65;7.25;;;;;;;4.13;100.00;99571.47;5043831;28;20419;-63
2022/04/03 07:36:33;;;;;;;7.90;7.50;;;;;;;4.14;100.00;99573.09;5044210;28;20033;-64
2022/04/03 07:38:59;;;;;;;9.07;8.57;;;;;;;3.93;100.00;99558.72;5044914;28;20392;-63
2022/04/03 07:41:24;;;;;;;8.43;7.93;;;;;;;3.90;100.00;99590.53;5036861;28;20124;-64
2022/04/03 07:43:50;;;;;;;9.60;9.00;;;;;;;3.95;100.00;99590.84;5042915;28;20036;-62
2022/04/03 07:46:18;;;;;;;8.77;8.27;;;;;;;4.08;100.00;99573.72;5041581;28;20029;-66
2022/04/03 07:48:44;;;;;;;8.20;7.80;;;;;;;4.05;100.00;99599.47;5037440;28;20048;-62
2022/04/03 07:51:11;;;;;;;8.82;8.32;;;;;;;3.88;100.00;99588.84;5040569;28;20044;-63
2022/04/03 07:53:38;;;;;;;8.30;7.90;;;;;;;3.81;100.00;99597.50;5045180;28;20029;-63
2022/04/03 07:56:05;;;;;;;9.45;8.85;;;;;;;3.96;100.00;99603.00;5044269;28;20044;-62
2022/04/03 07:58:35;;;;;;;9.25;8.73;;;;;;;3.93;100.00;99606.75;5038530;28;20055;-63
2022/04/03 08:01:01;;;;;;;8.05;7.65;;;;;;;3.90;100.00;99614.97;5041226;28;20033;-62
2022/04/03 08:03:26;;;;;;;7.65;7.25;;;;;;;3.76;100.00;99615.50;5031236;28;20032;-64
2022/04/03 08:05:53;;;;;;;8.40;7.97;;;;;;;3.70;100.00;99616.94;5036383;28;20017;-65
2022/04/03 08:08:19;;;;;;;7.78;7.38;;;;;;;3.88;100.00;99614.25;5026617;28;20033;-63
2022/04/03 08:10:44;;;;;;;7.88;7.47;;;;;;;3.96;100.00;99616.13;5029180;28;20377;-64
2022/04/03 08:13:10;;;;;;;8.60;8.10;;;;;;;4.09;100.00;99606.03;5030722;28;20397;-64
2022/04/03 08:15:35;;;;;;;9.65;9.05;;;;;;;4.35;100.00;99621.78;5028448;28;20029;-65
2022/04/03 08:18:01;;;;;;;7.70;7.30;;;;;;;4.85;100.00;99621.81;5027619;28;20021;-62
2022/04/03 08:20:26;;;;;;;7.75;7.35;;;;;;;4.63;100.00;99625.84;5031785;28;20037;-64
2022/04/03 08:22:51;;;;;;;7.60;7.20;;;;;;;4.64;100.00;99622.22;5033667;28;20028;-63
2022/04/03 08:25:18;;;;;;;8.88;8.38;;;;;;;4.84;100.00;99628.00;5034275;28;20021;-63
2022/04/03 08:27:43;;;;;;;8.65;8.15;;;;;;;4.68;100.00;99631.41;5049798;28;20850;-63
2022/04/03 08:30:14;;;;;;;8.05;7.65;;;;;;;4.65;100.00;99623.88;5030960;28;20029;-63
2022/04/03 08:32:40;;;;;;;7.38;7.07;;;;;;;4.71;100.00;99636.38;5030445;28;20792;-64
2022/04/03 08:35:07;;;;;;;7.20;6.90;;;;;;;4.86;100.00;99627.88;5049769;28;20025;-64
2022/04/03 08:37:32;;;;;;;8.57;8.07;;;;;;;5.02;100.00;99625.28;5036072;28;20022;-64
2022/04/03 08:39:57;;;;;;;7.70;7.30;;;;;;;5.28;98.44;99643.56;5027206;28;20021;-66
2022/04/03 08:42:23;;;;;;;7.22;6.93;;;;;;;5.51;98.14;99630.63;5033144;28;20080;-64
2022/04/03 08:44:49;;;;;;;7.63;7.22;;;;;;;5.57;98.77;99643.09;5034805;28;20052;-65
2022/04/03 08:47:19;;;;;;;8.75;8.25;;;;;;;5.40;99.85;99639.63;5031958;28;20116;-66
2022/04/03 08:49:46;;;;;;;8.70;8.20;;;;;;;5.30;98.44;99644.25;5034257;28;20485;-65
2022/04/03 08:52:13;;;;;;;8.85;8.35;;;;;;;5.53;97.44;99647.88;5037070;28;20078;-64
2022/04/03 08:54:39;;;;;;;8.05;7.65;;;;;;;5.49;96.72;99641.28;5032990;28;20112;-65
2022/04/03 08:57:05;;;;;;;7.68;7.28;;;;;;;5.45;96.02;99647.88;5033384;28;20128;-64
2022/04/03 08:59:30;;;;;;;8.38;7.90;;;;;;;5.42;96.45;99648.19;5034055;28;20112;-65
2022/04/03 09:01:56;;;;;;;8.25;7.85;;;;;;;5.32;96.45;99642.25;5031224;28;20135;-64
2022/04/03 09:04:21;;;;;;;8.73;8.23;;;;;;;5.30;96.77;99644.25;5029800;28;20024;-66
2022/04/03 09:06:55;;;;;;;7.68;7.28;;;;;;;5.15;98.29;99646.69;5033132;28;20056;-66
2022/04/03 09:09:30;;;;;;;7.90;7.50;;;;;;;5.08;98.24;99645.69;5026804;28;20377;-66
2022/04/03 09:12:12;;;;;;;;;;;;;;;5.06;98.13;99652.06;5036609;28;20040;-66
2022/04/03 09:14:49;;;;;;;7.20;6.90;;;;;;;5.46;97.28;99641.63;5032939;28;19924;-65
2022/04/03 09:17:38;;;;;;;7.80;7.40;;;;;;;5.67;96.37;99656.09;5035943;28;20041;-66
2022/04/03 09:20:08;;;;;;;7.75;7.35;;;;;;;5.73;94.81;99647.56;5034267;28;20825;-65
2022/04/03 09:22:37;;;;;;;8.05;7.65;;;;;;;5.82;94.74;99651.81;5038485;28;20043;-65
2022/04/03 09:25:04;;;;;;;7.97;7.57;;;;;;;5.53;95.21;99650.50;5035416;28;20477;-64
2022/04/03 09:27:33;;;;;;;8.05;7.65;;;;;;;5.79;93.65;99645.06;5036333;28;20060;-64
2022/04/03 09:30:10;;;;;;;11.02;10.32;;;;;;;6.05;91.89;99649.34;5030923;28;20044;-64
2022/04/03 09:32:46;;;;;;;8.52;8.02;;;;;;;6.30;90.52;99648.31;5035341;28;20031;-65
2022/04/03 09:35:12;;;;;;;8.00;7.60;;;;;;;6.60;88.35;99653.81;5037953;28;20025;-64
2022/04/03 09:37:38;;;;;;;8.13;7.72;;;;;;;6.35;88.98;99653.91;5023422;28;20041;-64
2022/04/03 09:40:04;;;;;;;7.47;7.13;;;;;;;6.53;89.40;99658.13;5032130;28;20061;-64
2022/04/03 09:42:29;;;;;;;7.97;7.57;;;;;;;6.12;91.68;99657.41;5027304;28;20043;-64
2022/04/03 09:44:55;;;;;;;8.07;7.68;;;;;;;5.88;92.90;99660.88;5028355;28;20480;-65
2022/04/03 09:47:33;;;;;;;7.75;7.35;;;;;;;5.83;93.23;99667.44;5035913;28;20033;-64
2022/04/03 09:50:05;;;;;;;9.05;8.55;;;;;;;6.02;92.26;99676.00;5025101;28;20975;-63
2022/04/03 09:52:43;;;;;;;7.68;7.28;;;;;;;6.05;92.45;99673.06;5025279;28;20025;-64
2022/04/03 09:55:22;;;;;;;8.27;7.88;;;;;;;6.08;92.94;99675.34;5032767;28;20405;-64
2022/04/03 09:58:02;;;;;;;8.55;8.07;;;;;;;5.97;91.44;99670.44;5028753;28;20049;-64
2022/04/03 10:00:33;;;;;;;7.70;7.30;;;;;;;5.78;91.77;99664.47;5034644;28;20017;-64
2022/04/03 10:03:00;;;;;;;8.10;7.70;;;;;;;5.62;91.90;99661.84;5036739;28;20033;-64
2022/04/03 10:05:30;;;;;;;8.68;8.18;;;;;;;5.80;92.24;99674.84;5032844;28;20033;-65
2022/04/03 10:08:00;;;;;;;7.90;7.50;;;;;;;5.90;93.24;99678.13;5033363;28;20025;-66
2022/04/03 10:10:27;;;;;;;7.20;6.90;;;;;;;6.13;92.67;99678.31;5029121;28;20037;-65
2022/04/03 10:12:55;;;;;;;7.95;7.55;;;;;;;6.17;91.62;99671.72;5029253;28;20077;-67
2022/04/03 10:15:21;;;;;;;7.32;7.03;;;;;;;6.25;90.26;99668.25;5030151;28;20036;-67
2022/04/03 10:17:46;;;;;;;7.65;7.25;;;;;;;6.31;88.59;99672.84;5030627;28;20511;-66
2022/04/03 10:20:14;;;;;;;7.95;7.55;;;;;;;6.09;89.67;99679.63;5032088;28;20021;-66
2022/04/03 10:22:41;;;;;;;8.70;8.20;;;;;;;5.93;88.01;99687.53;5028178;28;20041;-67
2022/04/03 10:25:11;;;;;;;8.68;8.23;;;;;;;6.12;88.58;99675.84;5031988;28;20463;-67
2022/04/03 10:27:39;;;;;;;8.05;7.65;;;;;;;5.93;86.69;99687.53;5018954;28;20044;-66
2022/04/03 10:30:06;;;;;;;8.98;8.48;;;;;;;6.18;86.41;99690.97;5014148;28;20170;-67
2022/04/03 10:32:34;;;;;;;7.40;7.10;;;;;;;6.19;86.97;99687.34;5034955;28;20050;-66
2022/04/03 10:35:09;;;;;;;7.68;7.30;;;;;;;6.11;86.93;99685.56;5031483;28;20507;-66
2022/04/03 10:37:38;;;;;;;9.40;8.88;;;;;;;6.02;85.99;99683.91;5032830;28;20060;-64
2022/04/03 10:40:09;;;;;;;9.32;8.80;;;;;;;6.54;85.31;99683.50;5031380;28;20033;-65
2022/04/03 10:43:06;;;;;;;8.35;7.93;;;;;;;6.61;82.91;99676.53;5037488;28;20037;-66
2022/04/03 10:45:32;;;;;;;8.02;7.63;;;;;;;6.79;82.02;99685.03;5028068;28;20022;-66
2022/04/03 10:48:19;;;;;;;8.10;7.70;;;;;;;6.59;83.06;99689.06;5033069;28;20504;-64
2022/04/03 10:51:24;;;;;;;8.77;8.27;;;;;;;6.54;82.74;99686.13;5030739;28;20120;-64
2022/04/03 10:53:54;;;;;;;7.27;6.97;;;;;;;6.78;82.54;99690.50;5031343;28;20037;-64
2022/04/03 10:56:25;;;;;;;7.40;7.10;;;;;;;6.86;82.44;99685.19;5034086;28;20029;-65
2022/04/03 10:58:52;;;;;;;7.78;7.38;;;;;;;7.16;80.65;99691.47;5034016;28;20508;-65
2022/04/03 11:01:28;;;;;;;7.78;7.38;;;;;;;7.03;82.24;99680.66;5039344;28;20033;-65
2022/04/03 11:03:58;;;;;;;7.70;7.30;;;;;;;6.48;82.39;99679.72;5023619;28;20033;-65
2022/04/03 11:06:26;;;;;;;7.93;7.53;;;;;;;6.64;84.03;99684.94;5034923;28;20151;-64
2022/04/03 11:09:27;;;;;;;7.47;7.15;;;;;;;6.64;83.55;99678.84;5033388;28;20075;-64
2022/04/03 11:11:52;;;;;;;7.30;7.00;;;;;;;6.90;82.51;99687.31;5009406;28;20029;-65
2022/04/03 11:14:56;;;;;;;8.10;7.70;;;;;;;6.85;80.32;99689.63;5032971;28;20647;-64
2022/04/03 11:17:53;;;;;;;7.43;7.07;;;;;;;6.86;80.17;99691.28;5043290;28;20511;-64
2022/04/03 11:20:39;;;;;;;7.95;7.55;;;;;;;6.53;81.06;99689.72;5025965;28;20029;-64
2022/04/03 11:23:08;;;;;;;7.90;7.50;;;;;;;6.53;80.57;99681.84;5045909;28;20041;-65
2022/04/03 11:25:33;;;;;;;7.85;7.45;;;;;;;6.59;80.02;99683.78;5031276;28;20103;-66
2022/04/03 11:27:59;;;;;;;7.72;7.32;;;;;;;6.55;79.25;99682.50;5029174;28;20546;-66
2022/04/03 11:30:25;;;;;;;8.13;7.72;;;;;;;6.61;77.42;99690.56;5026108;28;20026;-65
2022/04/03 11:32:51;;;;;;;7.65;7.25;;;;;;;6.85;77.66;99694.91;5035089;28;20025;-66
2022/04/03 11:35:31;;;;;;;8.20;7.80;;;;;;;7.17;77.48;99706.31;5039622;28;20109;-65
2022/04/03 11:37:57;;;;;;;8.40;7.97;;;;;;;7.05;76.43;99695.34;5035400;28;20040;-65